sensor_id;sensor_type;location;lat;lon;timestamp;pressure;altitude;pressure_sealevel;temperature;humidity
7524;BME280;3803;51.666;7.630;2023-07-31T00:00:14;100489.66;;;17.53;78.60
7524;BME280;3803;51.666;7.630;2023-07-31T00:00:35;100482.66;;;17.47;78.54
7524;BME280;3803;51.666;7.630;2023-07-31T00:00:56;100489.66;;;17.51;78.51
7524;BME280;3803;51.666;7.630;2023-07-31T00:01:17;100485.31;;;17.47;78.57
7524;BME280;3803;51.666;7.630;2023-07-31T00:01:37;100477.38;;;17.44;78.63
7524;BME280;3803;51.666;7.630;2023-07-31T00:01:58;100490.56;;;17.52;78.55
7524;BME280;3803;51.666;7.630;2023-07-31T00:02:19;100479.13;;;17.45;78.60
7524;BME280;3803;51.666;7.630;2023-07-31T00:02:39;100473.88;;;17.48;78.53
7524;BME280;3803;51.666;7.630;2023-07-31T00:03:00;100465.97;;;17.42;78.49
7524;BME280;3803;51.666;7.630;2023-07-31T00:03:20;100483.53;;;17.48;78.59
7524;BME280;3803;51.666;7.630;2023-07-31T00:03:41;100481.81;;;17.42;78.68
7524;BME280;3803;51.666;7.630;2023-07-31T00:04:02;100474.78;;;17.41;78.81
7524;BME280;3803;51.666;7.630;2023-07-31T00:04:22;100475.66;;;17.40;78.63
7524;BME280;3803;51.666;7.630;2023-07-31T00:04:43;100472.13;;;17.41;78.69
7524;BME280;3803;51.666;7.630;2023-07-31T00:05:04;100483.53;;;17.48;78.39
7524;BME280;3803;51.666;7.630;2023-07-31T00:05:25;100482.66;;;17.43;78.51
7524;BME280;3803;51.666;7.630;2023-07-31T00:05:46;100480.03;;;17.44;78.47
7524;BME280;3803;51.666;7.630;2023-07-31T00:06:06;100469.50;;;17.39;78.55
7524;BME280;3803;51.666;7.630;2023-07-31T00:06:27;100482.66;;;17.44;78.52
7524;BME280;3803;51.666;7.630;2023-07-31T00:06:48;100477.38;;;17.43;78.62
7524;BME280;3803;51.666;7.630;2023-07-31T00:07:08;100473.88;;;17.39;78.72
7524;BME280;3803;51.666;7.630;2023-07-31T00:07:29;100490.56;;;17.46;78.76
7524;BME280;3803;51.666;7.630;2023-07-31T00:07:50;100480.91;;;17.43;78.50
7524;BME280;3803;51.666;7.630;2023-07-31T00:08:11;100481.81;;;17.44;78.49
7524;BME280;3803;51.666;7.630;2023-07-31T00:08:32;100480.06;;;17.41;78.76
7524;BME280;3803;51.666;7.630;2023-07-31T00:08:52;100483.59;;;17.40;78.68
7524;BME280;3803;51.666;7.630;2023-07-31T00:09:13;100471.25;;;17.39;78.52
7524;BME280;3803;51.666;7.630;2023-07-31T00:09:33;100480.91;;;17.43;78.61
7524;BME280;3803;51.666;7.630;2023-07-31T00:09:54;100481.81;;;17.44;78.69
7524;BME280;3803;51.666;7.630;2023-07-31T00:10:16;100479.13;;;17.45;78.55
7524;BME280;3803;51.666;7.630;2023-07-31T00:10:37;100472.16;;;17.36;78.63
7524;BME280;3803;51.666;7.630;2023-07-31T00:10:57;100474.75;;;17.44;78.54
7524;BME280;3803;51.666;7.630;2023-07-31T00:11:18;100474.75;;;17.44;78.55
7524;BME280;3803;51.666;7.630;2023-07-31T00:11:39;100475.63;;;17.43;78.54
7524;BME280;3803;51.666;7.630;2023-07-31T00:11:59;100483.56;;;17.45;78.67
7524;BME280;3803;51.666;7.630;2023-07-31T00:12:20;100473.88;;;17.42;78.61
7524;BME280;3803;51.666;7.630;2023-07-31T00:12:43;100486.16;;;17.46;78.67
7524;BME280;3803;51.666;7.630;2023-07-31T00:13:04;100480.03;;;17.44;78.64
7524;BME280;3803;51.666;7.630;2023-07-31T00:13:25;100469.47;;;17.43;78.62
7524;BME280;3803;51.666;7.630;2023-07-31T00:13:45;100478.28;;;17.45;78.44
7524;BME280;3803;51.666;7.630;2023-07-31T00:14:06;100473.00;;;17.42;78.58
7524;BME280;3803;51.666;7.630;2023-07-31T00:14:26;100470.38;;;17.45;78.66
7524;BME280;3803;51.666;7.630;2023-07-31T00:14:47;100476.50;;;17.48;78.35
7524;BME280;3803;51.666;7.630;2023-07-31T00:15:08;100465.94;;;17.45;78.31
7524;BME280;3803;51.666;7.630;2023-07-31T00:15:29;100472.13;;;17.47;78.38
7524;BME280;3803;51.666;7.630;2023-07-31T00:15:50;100468.59;;;17.48;78.48
7524;BME280;3803;51.666;7.630;2023-07-31T00:16:10;100467.72;;;17.45;78.29
7524;BME280;3803;51.666;7.630;2023-07-31T00:16:31;100473.00;;;17.42;78.56
7524;BME280;3803;51.666;7.630;2023-07-31T00:16:52;100477.38;;;17.44;78.69
7524;BME280;3803;51.666;7.630;2023-07-31T00:17:12;100466.88;;;17.41;78.69
7524;BME280;3803;51.666;7.630;2023-07-31T00:17:33;100469.50;;;17.39;78.66
7524;BME280;3803;51.666;7.630;2023-07-31T00:17:53;100463.34;;;17.42;78.66
7524;BME280;3803;51.666;7.630;2023-07-31T00:18:15;100475.59;;;17.46;78.69
7524;BME280;3803;51.666;7.630;2023-07-31T00:18:35;100471.25;;;17.42;78.74
7524;BME280;3803;51.666;7.630;2023-07-31T00:18:56;100475.63;;;17.43;78.83
7524;BME280;3803;51.666;7.630;2023-07-31T00:19:16;100461.59;;;17.38;78.83
7524;BME280;3803;51.666;7.630;2023-07-31T00:19:37;100468.63;;;17.39;78.77
7524;BME280;3803;51.666;7.630;2023-07-31T00:19:58;100472.13;;;17.43;78.98
7524;BME280;3803;51.666;7.630;2023-07-31T00:20:19;100475.63;;;17.43;78.97
7524;BME280;3803;51.666;7.630;2023-07-31T00:20:39;100467.72;;;17.42;78.94
7524;BME280;3803;51.666;7.630;2023-07-31T00:21:00;100453.69;;;17.36;78.85
7524;BME280;3803;51.666;7.630;2023-07-31T00:21:21;100466.84;;;17.43;78.96
7524;BME280;3803;51.666;7.630;2023-07-31T00:22:28;100466.84;;;17.47;78.65
7524;BME280;3803;51.666;7.630;2023-07-31T00:22:49;100463.34;;;17.42;78.72
7524;BME280;3803;51.666;7.630;2023-07-31T00:23:09;100465.09;;;17.43;78.71
7524;BME280;3803;51.666;7.630;2023-07-31T00:23:30;100457.19;;;17.42;78.69
7524;BME280;3803;51.666;7.630;2023-07-31T00:23:50;100461.59;;;17.38;78.65
7524;BME280;3803;51.666;7.630;2023-07-31T00:24:11;100460.69;;;17.39;78.56
7524;BME280;3803;51.666;7.630;2023-07-31T00:24:32;100478.28;;;17.43;78.74
7524;BME280;3803;51.666;7.630;2023-07-31T00:24:52;100468.63;;;17.42;78.73
7524;BME280;3803;51.666;7.630;2023-07-31T00:25:13;100464.22;;;17.38;78.82
7524;BME280;3803;51.666;7.630;2023-07-31T00:25:33;100478.28;;;17.45;78.81
7524;BME280;3803;51.666;7.630;2023-07-31T00:25:54;100464.22;;;17.39;78.79
7524;BME280;3803;51.666;7.630;2023-07-31T00:26:15;100473.03;;;17.40;78.82
7524;BME280;3803;51.666;7.630;2023-07-31T00:26:36;100472.13;;;17.44;78.99
7524;BME280;3803;51.666;7.630;2023-07-31T00:26:56;100464.19;;;17.44;78.45
7524;BME280;3803;51.666;7.630;2023-07-31T00:27:17;100463.34;;;17.42;78.71
7524;BME280;3803;51.666;7.630;2023-07-31T00:27:38;100465.13;;;17.40;78.67
7524;BME280;3803;51.666;7.630;2023-07-31T00:27:59;100473.00;;;17.42;78.60
7524;BME280;3803;51.666;7.630;2023-07-31T00:28:20;100465.97;;;17.39;78.80
7524;BME280;3803;51.666;7.630;2023-07-31T00:28:41;100466.88;;;17.38;78.84
7524;BME280;3803;51.666;7.630;2023-07-31T00:29:02;100473.00;;;17.43;78.70
7524;BME280;3803;51.666;7.630;2023-07-31T00:29:22;100473.88;;;17.47;78.60
7524;BME280;3803;51.666;7.630;2023-07-31T00:29:43;100459.84;;;17.40;78.64
7524;BME280;3803;51.666;7.630;2023-07-31T00:30:04;100458.09;;;17.37;78.65
7524;BME280;3803;51.666;7.630;2023-07-31T00:30:26;100466.88;;;17.41;78.69
7524;BME280;3803;51.666;7.630;2023-07-31T00:30:48;100466.88;;;17.41;78.71
7524;BME280;3803;51.666;7.630;2023-07-31T00:31:08;100468.59;;;17.45;78.59
7524;BME280;3803;51.666;7.630;2023-07-31T00:31:29;100463.34;;;17.39;78.58
7524;BME280;3803;51.666;7.630;2023-07-31T00:31:49;100463.31;;;17.47;78.74
7524;BME280;3803;51.666;7.630;2023-07-31T00:32:11;100456.31;;;17.41;78.43
7524;BME280;3803;51.666;7.630;2023-07-31T00:32:32;100451.94;;;17.40;78.32
7524;BME280;3803;51.666;7.630;2023-07-31T00:32:54;100460.69;;;17.42;78.66
7524;BME280;3803;51.666;7.630;2023-07-31T00:33:14;100461.59;;;17.38;78.36
7524;BME280;3803;51.666;7.630;2023-07-31T00:33:35;100453.69;;;17.33;78.71
7524;BME280;3803;51.666;7.630;2023-07-31T00:33:57;100454.59;;;17.31;78.68
7524;BME280;3803;51.666;7.630;2023-07-31T00:34:18;100458.97;;;17.35;78.77
7524;BME280;3803;51.666;7.630;2023-07-31T00:34:38;100465.13;;;17.37;78.71
7524;BME280;3803;51.666;7.630;2023-07-31T00:34:59;100452.84;;;17.31;78.69
7524;BME280;3803;51.666;7.630;2023-07-31T00:35:20;100458.13;;;17.31;78.71
7524;BME280;3803;51.666;7.630;2023-07-31T00:36:12;100470.38;;;17.37;78.76
7524;BME280;3803;51.666;7.630;2023-07-31T00:36:32;100457.22;;;17.31;78.66
7524;BME280;3803;51.666;7.630;2023-07-31T00:36:53;100466.91;;;17.32;78.85
7524;BME280;3803;51.666;7.630;2023-07-31T00:37:14;100451.13;;;17.25;78.54
7524;BME280;3803;51.666;7.630;2023-07-31T00:37:35;100461.63;;;17.29;78.71
7524;BME280;3803;51.666;7.630;2023-07-31T00:37:58;100469.56;;;17.30;78.77
7524;BME280;3803;51.666;7.630;2023-07-31T00:38:18;100456.38;;;17.24;78.67
7524;BME280;3803;51.666;7.630;2023-07-31T00:38:39;100459.91;;;17.24;78.80
7524;BME280;3803;51.666;7.630;2023-07-31T00:39:00;100447.59;;;17.23;78.64
7524;BME280;3803;51.666;7.630;2023-07-31T00:39:21;100459.91;;;17.24;78.83
7524;BME280;3803;51.666;7.630;2023-07-31T00:39:42;100457.28;;;17.21;78.92
7524;BME280;3803;51.666;7.630;2023-07-31T00:40:03;100465.16;;;17.28;78.85
7524;BME280;3803;51.666;7.630;2023-07-31T00:40:24;100453.75;;;17.24;78.85
7524;BME280;3803;51.666;7.630;2023-07-31T00:40:44;100458.16;;;17.26;78.86
7524;BME280;3803;51.666;7.630;2023-07-31T00:41:05;100460.78;;;17.25;78.80
7524;BME280;3803;51.666;7.630;2023-07-31T00:41:25;100456.38;;;17.27;78.51
7524;BME280;3803;51.666;7.630;2023-07-31T00:41:46;100456.41;;;17.25;78.85
7524;BME280;3803;51.666;7.630;2023-07-31T00:42:07;100451.13;;;17.22;78.86
7524;BME280;3803;51.666;7.630;2023-07-31T00:42:27;100448.47;;;17.24;78.92
7524;BME280;3803;51.666;7.630;2023-07-31T00:42:48;100452.88;;;17.23;78.54
7524;BME280;3803;51.666;7.630;2023-07-31T00:43:09;100456.38;;;17.27;78.58
7524;BME280;3803;51.666;7.630;2023-07-31T00:43:29;100444.94;;;17.20;78.86
7524;BME280;3803;51.666;7.630;2023-07-31T00:43:50;100448.47;;;17.21;78.49
7524;BME280;3803;51.666;7.630;2023-07-31T00:44:10;100452.84;;;17.20;78.79
7524;BME280;3803;51.666;7.630;2023-07-31T00:44:31;100444.09;;;17.18;78.67
7524;BME280;3803;51.666;7.630;2023-07-31T00:44:51;100458.16;;;17.17;78.69
7524;BME280;3803;51.666;7.630;2023-07-31T00:45:12;100453.75;;;17.18;78.82
7524;BME280;3803;51.666;7.630;2023-07-31T00:45:33;100464.28;;;17.19;78.83
7524;BME280;3803;51.666;7.630;2023-07-31T00:45:54;100450.25;;;17.14;78.69
7524;BME280;3803;51.666;7.630;2023-07-31T00:46:15;100454.63;;;17.15;78.84
7524;BME280;3803;51.666;7.630;2023-07-31T00:46:36;100464.28;;;17.19;78.82
7524;BME280;3803;51.666;7.630;2023-07-31T00:46:56;100446.75;;;17.12;78.78
7524;BME280;3803;51.666;7.630;2023-07-31T00:47:19;100451.13;;;17.13;78.86
7524;BME280;3803;51.666;7.630;2023-07-31T00:47:40;100457.28;;;17.18;78.87
7524;BME280;3803;51.666;7.630;2023-07-31T00:48:01;100450.28;;;17.11;78.80
7524;BME280;3803;51.666;7.630;2023-07-31T00:48:23;100455.53;;;17.12;79.02
7524;BME280;3803;51.666;7.630;2023-07-31T00:48:44;100446.75;;;17.10;78.80
7524;BME280;3803;51.666;7.630;2023-07-31T00:49:05;100452.91;;;17.11;78.74
7524;BME280;3803;51.666;7.630;2023-07-31T00:49:26;100445.88;;;17.10;78.91
7524;BME280;3803;51.666;7.630;2023-07-31T00:49:47;100452.91;;;17.09;78.75
7524;BME280;3803;51.666;7.630;2023-07-31T00:50:08;100455.53;;;17.09;78.90
7524;BME280;3803;51.666;7.630;2023-07-31T00:50:29;100450.25;;;17.09;79.04
7524;BME280;3803;51.666;7.630;2023-07-31T00:50:52;100445.03;;;17.06;78.90
7524;BME280;3803;51.666;7.630;2023-07-31T00:51:13;100451.16;;;17.07;78.81
7524;BME280;3803;51.666;7.630;2023-07-31T00:51:34;100445.88;;;17.07;78.65
7524;BME280;3803;51.666;7.630;2023-07-31T00:51:55;100441.53;;;17.04;78.81
7524;BME280;3803;51.666;7.630;2023-07-31T00:52:20;100451.16;;;17.07;78.84
7524;BME280;3803;51.666;7.630;2023-07-31T00:52:40;100444.13;;;17.06;78.84
7524;BME280;3803;51.666;7.630;2023-07-31T00:53:01;100436.25;;;16.99;78.92
7524;BME280;3803;51.666;7.630;2023-07-31T00:53:22;100437.09;;;17.05;78.75
7524;BME280;3803;51.666;7.630;2023-07-31T00:53:45;100444.16;;;17.03;78.85
7524;BME280;3803;51.666;7.630;2023-07-31T00:54:07;100440.66;;;17.01;78.84
7524;BME280;3803;51.666;7.630;2023-07-31T00:54:28;100438.00;;;17.02;78.98
7524;BME280;3803;51.666;7.630;2023-07-31T00:54:49;100443.28;;;17.01;78.83
7524;BME280;3803;51.666;7.630;2023-07-31T00:55:10;100443.25;;;17.02;78.58
7524;BME280;3803;51.666;7.630;2023-07-31T00:55:31;100441.50;;;16.99;78.77
7524;BME280;3803;51.666;7.630;2023-07-31T00:55:52;100440.63;;;17.04;78.71
7524;BME280;3803;51.666;7.630;2023-07-31T00:56:14;100440.63;;;17.02;78.65
7524;BME280;3803;51.666;7.630;2023-07-31T00:56:48;100448.53;;;17.04;78.86
7524;BME280;3803;51.666;7.630;2023-07-31T00:57:11;100447.66;;;17.03;78.90
7524;BME280;3803;51.666;7.630;2023-07-31T00:57:32;100444.16;;;16.99;78.73
7524;BME280;3803;51.666;7.630;2023-07-31T00:57:54;100442.41;;;16.98;78.73
7524;BME280;3803;51.666;7.630;2023-07-31T00:58:16;100435.41;;;16.96;78.66
7524;BME280;3803;51.666;7.630;2023-07-31T00:58:36;100442.41;;;16.98;78.75
7524;BME280;3803;51.666;7.630;2023-07-31T00:58:57;100449.44;;;17.03;78.83
7524;BME280;3803;51.666;7.630;2023-07-31T00:59:18;100441.53;;;16.98;78.68
7524;BME280;3803;51.666;7.630;2023-07-31T00:59:39;100440.66;;;17.01;78.79
7524;BME280;3803;51.666;7.630;2023-07-31T01:00:00;100452.94;;;17.02;78.76
7524;BME280;3803;51.666;7.630;2023-07-31T01:00:20;100438.88;;;16.99;78.79
7524;BME280;3803;51.666;7.630;2023-07-31T01:00:41;100436.28;;;16.98;78.69
7524;BME280;3803;51.666;7.630;2023-07-31T01:01:02;100436.25;;;17.01;78.81
7524;BME280;3803;51.666;7.630;2023-07-31T01:01:23;100428.34;;;16.96;78.87
7524;BME280;3803;51.666;7.630;2023-07-31T01:01:44;100429.25;;;16.97;78.67
7524;BME280;3803;51.666;7.630;2023-07-31T01:02:05;100430.09;;;16.97;78.90
7524;BME280;3803;51.666;7.630;2023-07-31T01:02:26;100428.34;;;16.99;78.96
7524;BME280;3803;51.666;7.630;2023-07-31T01:02:50;100430.09;;;16.97;78.67
7524;BME280;3803;51.666;7.630;2023-07-31T01:03:12;100443.25;;;17.04;78.85
7524;BME280;3803;51.666;7.630;2023-07-31T01:03:33;100436.25;;;17.01;78.69
7524;BME280;3803;51.666;7.630;2023-07-31T01:03:54;100431.84;;;17.00;78.61
7524;BME280;3803;51.666;7.630;2023-07-31T01:04:16;100438.03;;;17.01;78.50
7524;BME280;3803;51.666;7.630;2023-07-31T01:04:37;100437.13;;;17.02;78.77
7524;BME280;3803;51.666;7.630;2023-07-31T01:04:58;100436.28;;;16.98;78.68
7524;BME280;3803;51.666;7.630;2023-07-31T01:05:25;100430.13;;;16.96;78.78
7524;BME280;3803;51.666;7.630;2023-07-31T01:07:39;100443.28;;;17.05;78.59
7524;BME280;3803;51.666;7.630;2023-07-31T01:08:15;100428.34;;;16.99;78.59
7524;BME280;3803;51.666;7.630;2023-07-31T01:08:54;100438.00;;;17.05;78.64
7524;BME280;3803;51.666;7.630;2023-07-31T01:10:30;100430.09;;;16.97;78.79
7524;BME280;3803;51.666;7.630;2023-07-31T01:11:02;100416.94;;;16.93;78.60
7524;BME280;3803;51.666;7.630;2023-07-31T01:11:28;100422.25;;;16.90;78.94
7524;BME280;3803;51.666;7.630;2023-07-31T01:11:53;100432.75;;;16.97;78.62
7524;BME280;3803;51.666;7.630;2023-07-31T01:12:17;100430.13;;;16.91;78.67
7524;BME280;3803;51.666;7.630;2023-07-31T01:12:38;100424.84;;;16.91;78.84
7524;BME280;3803;51.666;7.630;2023-07-31T01:13:00;100431.88;;;16.97;78.65
7524;BME280;3803;51.666;7.630;2023-07-31T01:13:22;100416.94;;;16.94;78.79
7524;BME280;3803;51.666;7.630;2023-07-31T01:13:44;100425.75;;;16.93;78.61
7524;BME280;3803;51.666;7.630;2023-07-31T01:14:06;100422.22;;;16.93;78.73
7524;BME280;3803;51.666;7.630;2023-07-31T01:14:26;100419.59;;;16.94;78.69
7524;BME280;3803;51.666;7.630;2023-07-31T01:15:04;100430.97;;;16.99;78.82
7524;BME280;3803;51.666;7.630;2023-07-31T01:15:25;100428.34;;;17.01;78.79
7524;BME280;3803;51.666;7.630;2023-07-31T01:15:45;100427.47;;;17.01;78.52
7524;BME280;3803;51.666;7.630;2023-07-31T01:16:06;100432.72;;;17.02;78.79
7524;BME280;3803;51.666;7.630;2023-07-31T01:16:27;100423.94;;;17.02;78.91
7524;BME280;3803;51.666;7.630;2023-07-31T01:16:47;100418.69;;;16.98;78.75
7524;BME280;3803;51.666;7.630;2023-07-31T01:17:08;100417.78;;;17.01;78.78
7524;BME280;3803;51.666;7.630;2023-07-31T01:17:29;100423.06;;;17.01;78.69
7524;BME280;3803;51.666;7.630;2023-07-31T01:17:49;100422.19;;;17.02;78.70
7524;BME280;3803;51.666;7.630;2023-07-31T01:18:10;100425.69;;;17.06;78.71
7524;BME280;3803;51.666;7.630;2023-07-31T01:18:31;100423.91;;;17.11;78.53
7524;BME280;3803;51.666;7.630;2023-07-31T01:18:51;100421.28;;;17.08;78.42
7524;BME280;3803;51.666;7.630;2023-07-31T01:19:14;100426.53;;;17.11;78.50
7524;BME280;3803;51.666;7.630;2023-07-31T01:19:35;100421.28;;;17.08;78.47
7524;BME280;3803;51.666;7.630;2023-07-31T01:19:59;100415.16;;;17.04;78.57
7524;BME280;3803;51.666;7.630;2023-07-31T01:20:23;100424.78;;;17.07;78.54
7524;BME280;3803;51.666;7.630;2023-07-31T01:20:48;100417.78;;;17.03;78.44
7524;BME280;3803;51.666;7.630;2023-07-31T01:21:30;100428.28;;;17.12;78.56
7524;BME280;3803;51.666;7.630;2023-07-31T01:22:28;100429.16;;;17.14;78.56
7524;BME280;3803;51.666;7.630;2023-07-31T01:24:44;100423.91;;;17.11;78.52
7524;BME280;3803;51.666;7.630;2023-07-31T01:26:39;100429.16;;;17.22;78.78
7524;BME280;3803;51.666;7.630;2023-07-31T01:27:14;100431.78;;;17.23;78.80
7524;BME280;3803;51.666;7.630;2023-07-31T01:27:44;100417.72;;;17.21;78.55
7524;BME280;3803;51.666;7.630;2023-07-31T01:28:11;100422.97;;;17.28;78.79
7524;BME280;3803;51.666;7.630;2023-07-31T01:29:07;100436.09;;;17.37;78.69
7524;BME280;3803;51.666;7.630;2023-07-31T01:30:06;100428.19;;;17.40;78.83
7524;BME280;3803;51.666;7.630;2023-07-31T01:30:38;100419.41;;;17.36;78.69
7524;BME280;3803;51.666;7.630;2023-07-31T01:31:02;100425.53;;;17.42;78.73
7524;BME280;3803;51.666;7.630;2023-07-31T01:31:29;100426.41;;;17.44;78.77
7524;BME280;3803;51.666;7.630;2023-07-31T01:31:53;100428.13;;;17.46;78.80
7524;BME280;3803;51.666;7.630;2023-07-31T01:32:17;100418.47;;;17.48;78.71
7524;BME280;3803;51.666;7.630;2023-07-31T01:32:40;100415.78;;;17.51;78.61
7524;BME280;3803;51.666;7.630;2023-07-31T01:33:02;100426.31;;;17.58;78.51
7524;BME280;3803;51.666;7.630;2023-07-31T01:33:27;100425.47;;;17.54;78.70
7524;BME280;3803;51.666;7.630;2023-07-31T01:33:53;100425.38;;;17.62;78.43
7524;BME280;3803;51.666;7.630;2023-07-31T01:34:17;100415.72;;;17.61;78.56
7524;BME280;3803;51.666;7.630;2023-07-31T01:34:39;100419.22;;;17.63;78.35
7524;BME280;3803;51.666;7.630;2023-07-31T01:35:00;100426.25;;;17.65;78.61
7524;BME280;3803;51.666;7.630;2023-07-31T01:35:21;100406.91;;;17.62;78.18
7524;BME280;3803;51.666;7.630;2023-07-31T01:35:44;100418.34;;;17.67;78.37
7524;BME280;3803;51.666;7.630;2023-07-31T01:36:05;100415.72;;;17.64;78.57
7524;BME280;3803;51.666;7.630;2023-07-31T01:36:26;100430.63;;;17.70;78.63
7524;BME280;3803;51.666;7.630;2023-07-31T01:36:47;100415.66;;;17.70;78.54
7524;BME280;3803;51.666;7.630;2023-07-31T01:37:08;100411.28;;;17.69;78.20
7524;BME280;3803;51.666;7.630;2023-07-31T01:37:29;100419.13;;;17.78;78.55
7524;BME280;3803;51.666;7.630;2023-07-31T01:37:53;100415.66;;;17.73;78.65
7524;BME280;3803;51.666;7.630;2023-07-31T01:38:14;100405.06;;;17.76;78.20
7524;BME280;3803;51.666;7.630;2023-07-31T01:38:35;100402.41;;;17.78;78.20
7524;BME280;3803;51.666;7.630;2023-07-31T01:38:59;100422.59;;;17.84;78.32
7524;BME280;3803;51.666;7.630;2023-07-31T01:39:20;100397.16;;;17.76;78.24
7524;BME280;3803;51.666;7.630;2023-07-31T01:39:41;100410.28;;;17.84;78.17
7524;BME280;3803;51.666;7.630;2023-07-31T01:40:02;100413.78;;;17.86;78.21
7524;BME280;3803;51.666;7.630;2023-07-31T01:40:23;100412.00;;;17.87;77.98
7524;BME280;3803;51.666;7.630;2023-07-31T01:40:44;100402.41;;;17.79;78.21
7524;BME280;3803;51.666;7.630;2023-07-31T01:41:05;100413.78;;;17.85;78.36
7524;BME280;3803;51.666;7.630;2023-07-31T01:41:26;100411.13;;;17.89;78.18
7524;BME280;3803;51.666;7.630;2023-07-31T01:41:47;100401.44;;;17.87;78.21
7524;BME280;3803;51.666;7.630;2023-07-31T01:42:07;100404.97;;;17.86;77.81
7524;BME280;3803;51.666;7.630;2023-07-31T01:42:28;100398.81;;;17.88;77.92
7524;BME280;3803;51.666;7.630;2023-07-31T01:42:48;100409.38;;;17.87;78.02
7524;BME280;3803;51.666;7.630;2023-07-31T01:43:09;100420.81;;;17.89;78.10
7524;BME280;3803;51.666;7.630;2023-07-31T01:43:29;100404.09;;;17.90;78.14
7524;BME280;3803;51.666;7.630;2023-07-31T01:43:50;100432.19;;;17.97;78.09
7524;BME280;3803;51.666;7.630;2023-07-31T01:44:11;100407.59;;;17.90;77.74
7524;BME280;3803;51.666;7.630;2023-07-31T01:44:31;100432.16;;;17.99;78.11
7524;BME280;3803;51.666;7.630;2023-07-31T01:44:53;100410.22;;;17.95;77.94
7524;BME280;3803;51.666;7.630;2023-07-31T01:45:14;100406.63;;;17.99;77.89
7524;BME280;3803;51.666;7.630;2023-07-31T01:45:35;100392.59;;;17.94;77.85
7524;BME280;3803;51.666;7.630;2023-07-31T01:45:55;100407.56;;;17.95;78.07
7524;BME280;3803;51.666;7.630;2023-07-31T01:46:16;100414.59;;;17.96;78.04
7524;BME280;3803;51.666;7.630;2023-07-31T01:46:36;100408.44;;;17.97;78.03
7524;BME280;3803;51.666;7.630;2023-07-31T01:46:57;100416.31;;;17.99;77.84
7524;BME280;3803;51.666;7.630;2023-07-31T01:47:20;100411.06;;;17.97;77.69
7524;BME280;3803;51.666;7.630;2023-07-31T01:47:41;100418.94;;;17.99;77.99
7524;BME280;3803;51.666;7.630;2023-07-31T01:48:01;100408.38;;;18.00;77.87
7524;BME280;3803;51.666;7.630;2023-07-31T01:48:22;100414.56;;;18.01;77.95
7524;BME280;3803;51.666;7.630;2023-07-31T01:48:42;100402.25;;;17.98;77.94
7524;BME280;3803;51.666;7.630;2023-07-31T01:49:05;100400.50;;;17.97;78.13
7524;BME280;3803;51.666;7.630;2023-07-31T01:49:26;100416.34;;;17.97;78.02
7524;BME280;3803;51.666;7.630;2023-07-31T01:49:47;100412.81;;;17.98;78.05
7524;BME280;3803;51.666;7.630;2023-07-31T01:50:08;100418.09;;;17.98;78.18
7524;BME280;3803;51.666;7.630;2023-07-31T01:50:29;100411.88;;;18.02;78.10
7524;BME280;3803;51.666;7.630;2023-07-31T01:50:49;100404.94;;;17.92;78.18
7524;BME280;3803;51.666;7.630;2023-07-31T01:51:10;100408.44;;;17.97;78.22
7524;BME280;3803;51.666;7.630;2023-07-31T01:51:31;100415.41;;;18.01;78.23
7524;BME280;3803;51.666;7.630;2023-07-31T01:51:54;100407.53;;;17.98;78.11
7524;BME280;3803;51.666;7.630;2023-07-31T01:52:16;100414.56;;;17.98;77.89
7524;BME280;3803;51.666;7.630;2023-07-31T01:52:37;100423.34;;;18.03;78.17
7524;BME280;3803;51.666;7.630;2023-07-31T01:52:57;100418.94;;;18.03;78.04
7524;BME280;3803;51.666;7.630;2023-07-31T01:53:18;100406.69;;;17.96;78.10
7524;BME280;3803;51.666;7.630;2023-07-31T01:53:39;100393.47;;;17.96;77.97
7524;BME280;3803;51.666;7.630;2023-07-31T01:54:00;100394.38;;;17.95;78.15
7524;BME280;3803;51.666;7.630;2023-07-31T01:54:21;100403.94;;;18.05;78.19
7524;BME280;3803;51.666;7.630;2023-07-31T01:54:42;100408.38;;;18.00;78.06
7524;BME280;3803;51.666;7.630;2023-07-31T01:55:02;100404.91;;;17.98;78.06
7524;BME280;3803;51.666;7.630;2023-07-31T01:55:23;100402.25;;;17.98;78.20
7524;BME280;3803;51.666;7.630;2023-07-31T01:55:44;100402.25;;;18.00;78.02
7524;BME280;3803;51.666;7.630;2023-07-31T01:56:04;100399.66;;;17.95;78.11
7524;BME280;3803;51.666;7.630;2023-07-31T01:56:26;100404.84;;;18.01;78.09
7524;BME280;3803;51.666;7.630;2023-07-31T01:56:47;100397.81;;;18.00;78.18
7524;BME280;3803;51.666;7.630;2023-07-31T01:57:07;100407.44;;;18.06;78.03
7524;BME280;3803;51.666;7.630;2023-07-31T01:57:28;100397.81;;;18.03;77.89
7524;BME280;3803;51.666;7.630;2023-07-31T01:57:49;100403.97;;;18.04;77.99
7524;BME280;3803;51.666;7.630;2023-07-31T01:58:10;100393.44;;;18.01;78.01
7524;BME280;3803;51.666;7.630;2023-07-31T01:58:31;100403.09;;;18.00;77.96
7524;BME280;3803;51.666;7.630;2023-07-31T01:58:51;100395.19;;;18.03;77.96
7524;BME280;3803;51.666;7.630;2023-07-31T01:59:12;100392.53;;;18.03;77.97
7524;BME280;3803;51.666;7.630;2023-07-31T01:59:32;100394.34;;;17.98;77.97
7524;BME280;3803;51.666;7.630;2023-07-31T01:59:53;100396.94;;;18.01;78.11
7524;BME280;3803;51.666;7.630;2023-07-31T02:00:14;100390.78;;;18.01;78.10
7524;BME280;3803;51.666;7.630;2023-07-31T02:00:34;100396.97;;;18.00;77.95
7524;BME280;3803;51.666;7.630;2023-07-31T02:00:55;100383.81;;;17.95;78.03
7524;BME280;3803;51.666;7.630;2023-07-31T02:01:16;100389.91;;;17.99;78.04
7524;BME280;3803;51.666;7.630;2023-07-31T02:01:36;100387.31;;;17.97;78.23
7524;BME280;3803;51.666;7.630;2023-07-31T02:01:57;100403.97;;;18.02;78.24
7524;BME280;3803;51.666;7.630;2023-07-31T02:02:19;100409.25;;;18.04;78.33
7524;BME280;3803;51.666;7.630;2023-07-31T02:02:40;100395.19;;;17.99;78.13
7524;BME280;3803;51.666;7.630;2023-07-31T02:03:00;100386.41;;;17.98;78.15
7524;BME280;3803;51.666;7.630;2023-07-31T02:03:21;100398.72;;;17.99;78.10
7524;BME280;3803;51.666;7.630;2023-07-31T02:03:41;100393.41;;;18.02;78.25
7524;BME280;3803;51.666;7.630;2023-07-31T02:04:02;100391.66;;;18.01;78.07
7524;BME280;3803;51.666;7.630;2023-07-31T02:04:25;100411.91;;;18.01;77.97
7524;BME280;3803;51.666;7.630;2023-07-31T02:04:45;100394.28;;;18.04;78.04
7524;BME280;3803;51.666;7.630;2023-07-31T02:05:07;100415.41;;;18.04;77.91
7524;BME280;3803;51.666;7.630;2023-07-31T02:05:28;100399.56;;;18.04;78.04